createdAt,value
2019-05-19T00:00:54.885Z,100864.47
2019-05-19T00:03:25.114Z,100854.78
2019-05-19T00:05:58.248Z,100862.78
2019-05-19T00:08:32.710Z,100859.01
2019-05-19T00:11:02.096Z,100859.53
2019-05-19T00:13:32.596Z,100862.84
2019-05-19T00:16:02.990Z,100863.80
2019-05-19T00:18:33.252Z,100862.30
2019-05-19T00:21:03.473Z,100857.96
2019-05-19T00:23:33.711Z,100861.19
2019-05-19T00:26:04.083Z,100856.41
2019-05-19T00:28:36.738Z,100857.68
2019-05-19T00:31:06.893Z,100851.25
2019-05-19T00:33:37.182Z,100853.83
2019-05-19T00:36:07.552Z,100854.52
2019-05-19T00:38:37.831Z,100855.31
2019-05-19T00:41:08.086Z,100854.73
2019-05-19T00:43:38.352Z,100855.31
2019-05-19T00:46:08.566Z,100855.41
2019-05-19T00:48:38.728Z,100850.20
2019-05-19T00:51:11.738Z,100850.16
2019-05-19T00:53:41.935Z,100846.91
2019-05-19T00:56:13.798Z,100848.36
2019-05-19T00:58:44.814Z,100847.36
2019-05-19T01:01:17.666Z,100845.91
2019-05-19T01:03:48.017Z,100842.20
2019-05-19T01:06:18.157Z,100844.08
2019-05-19T01:08:50.363Z,100845.59
2019-05-19T01:11:20.595Z,100843.39
2019-05-19T01:13:50.965Z,100845.46
2019-05-19T01:16:22.205Z,100845.92
2019-05-19T01:18:54.797Z,100843.33
2019-05-19T01:21:27.052Z,100834.55
2019-05-19T01:23:57.272Z,100830.34
2019-05-19T01:26:27.492Z,100836.44
2019-05-19T01:28:57.636Z,100835.98
2019-05-19T01:31:28.167Z,100834.24
2019-05-19T01:33:58.349Z,100827.95
2019-05-19T01:36:29.084Z,100834.00
2019-05-19T01:38:59.285Z,100826.69
2019-05-19T01:41:29.517Z,100833.70
2019-05-19T01:44:00.216Z,100827.97
2019-05-19T01:46:30.428Z,100823.06
2019-05-19T01:49:01.642Z,100817.56
2019-05-19T01:51:31.809Z,100820.00
2019-05-19T01:54:02.094Z,100814.65
2019-05-19T01:56:33.353Z,100818.49
2019-05-19T01:59:03.466Z,100822.50
2019-05-19T02:01:33.610Z,100823.65
2019-05-19T02:04:03.775Z,100822.53
2019-05-19T02:06:35.553Z,100828.54
2019-05-19T02:09:07.590Z,100826.71
2019-05-19T02:11:37.891Z,100824.70
2019-05-19T02:14:08.021Z,100827.28
2019-05-19T02:16:39.220Z,100829.06
2019-05-19T02:19:09.329Z,100827.48
2019-05-19T02:21:39.503Z,100816.41
2019-05-19T02:24:09.651Z,100813.08
2019-05-19T02:26:39.907Z,100820.31
2019-05-19T02:29:10.137Z,100812.55
2019-05-19T02:31:40.409Z,100810.28
2019-05-19T02:34:10.962Z,100810.23
2019-05-19T02:36:42.241Z,100818.09
2019-05-19T02:39:14.001Z,100826.97
2019-05-19T02:41:47.262Z,100833.28
2019-05-19T02:44:20.086Z,100829.66
2019-05-19T02:46:51.969Z,100830.89
2019-05-19T02:49:23.384Z,100830.95
2019-05-19T02:51:54.129Z,100832.33
2019-05-19T02:54:25.588Z,100822.02
2019-05-19T02:56:56.243Z,100828.27
2019-05-19T02:59:29.158Z,100827.92
2019-05-19T03:02:08.839Z,100828.69
2019-05-19T03:04:38.990Z,100819.80
2019-05-19T03:07:09.219Z,100830.08
2019-05-19T03:09:39.359Z,100826.91
2019-05-19T03:12:09.603Z,100835.47
2019-05-19T03:14:39.774Z,100828.59
2019-05-19T03:17:09.932Z,100835.55
2019-05-19T03:19:40.133Z,100833.78
2019-05-19T03:22:10.316Z,100837.92
2019-05-19T03:24:40.457Z,100836.20
2019-05-19T03:27:12.239Z,100843.42
2019-05-19T03:29:48.181Z,100836.75
2019-05-19T03:32:27.805Z,100835.23
2019-05-19T03:34:57.917Z,100831.80
2019-05-19T03:37:28.167Z,100831.95
2019-05-19T03:39:58.324Z,100841.38
2019-05-19T03:42:28.546Z,100833.14
2019-05-19T03:44:58.684Z,100836.10
2019-05-19T03:47:29.168Z,100831.69
2019-05-19T03:49:59.294Z,100827.95
2019-05-19T03:52:29.414Z,100832.84
2019-05-19T03:54:59.594Z,100829.40
2019-05-19T03:57:29.774Z,100834.80
2019-05-19T03:59:59.900Z,100843.55
2019-05-19T04:02:30.421Z,100836.48
2019-05-19T04:05:00.546Z,100838.23
2019-05-19T04:07:33.198Z,100846.35
2019-05-19T04:10:03.349Z,100845.48
2019-05-19T04:12:33.505Z,100845.19
2019-05-19T04:15:04.679Z,100838.28
2019-05-19T04:17:34.863Z,100839.86
2019-05-19T04:20:16.106Z,100841.15
2019-05-19T04:22:46.389Z,100844.77
2019-05-19T04:25:16.547Z,100836.88
2019-05-19T04:27:46.651Z,100841.21
2019-05-19T04:30:17.024Z,100837.59
2019-05-19T04:32:47.460Z,100839.83
2019-05-19T04:35:17.673Z,100835.28
2019-05-19T04:37:47.807Z,100831.50
2019-05-19T04:40:17.987Z,100833.20
2019-05-19T04:42:48.172Z,100836.44
2019-05-19T04:45:18.360Z,100831.56
2019-05-19T04:47:48.337Z,100833.94
2019-05-19T04:50:20.214Z,100835.44
2019-05-19T04:52:50.361Z,100836.05
2019-05-19T04:55:20.553Z,100832.08
2019-05-19T04:57:50.706Z,100829.72
2019-05-19T05:00:20.957Z,100834.39
2019-05-19T05:02:51.232Z,100832.88
2019-05-19T05:05:21.417Z,100833.35
2019-05-19T05:07:51.603Z,100836.16
2019-05-19T05:10:21.848Z,100834.23
2019-05-19T05:12:53.266Z,100840.94
2019-05-19T05:15:26.192Z,100836.08
2019-05-19T05:17:56.310Z,100834.30
2019-05-19T05:20:26.424Z,100827.86
2019-05-19T05:22:56.586Z,100835.03
2019-05-19T05:25:26.677Z,100833.19
2019-05-19T05:27:56.882Z,100835.20
2019-05-19T05:30:27.001Z,100831.31
2019-05-19T05:32:57.224Z,100835.82
2019-05-19T05:35:28.390Z,100830.88
2019-05-19T05:37:58.583Z,100833.53
2019-05-19T05:40:28.683Z,100833.20
2019-05-19T05:43:00.359Z,100832.36
2019-05-19T05:45:30.471Z,100838.07
2019-05-19T05:48:02.310Z,100843.47
2019-05-19T05:50:35.321Z,100848.80
2019-05-19T05:53:05.548Z,100850.37
2019-05-19T05:55:35.767Z,100860.76
2019-05-19T05:58:06.024Z,100860.17
2019-05-19T06:00:36.225Z,100857.55
2019-05-19T06:03:06.474Z,100851.47
2019-05-19T06:05:36.651Z,100861.58
2019-05-19T06:08:06.880Z,100851.47
2019-05-19T06:10:37.095Z,100856.28
2019-05-19T06:13:07.333Z,100853.48
2019-05-19T06:15:37.497Z,100855.78
2019-05-19T06:18:07.757Z,100855.39
2019-05-19T06:20:37.923Z,100850.19
2019-05-19T06:23:08.076Z,100857.48
2019-05-19T06:25:39.937Z,100864.02
2019-05-19T06:28:10.110Z,100866.12
2019-05-19T06:30:40.242Z,100859.03
2019-05-19T06:33:10.430Z,100871.20
2019-05-19T06:35:40.641Z,100859.16
2019-05-19T06:38:10.877Z,100866.83
2019-05-19T06:40:41.080Z,100866.08
2019-05-19T06:43:11.249Z,100871.88
2019-05-19T06:45:41.670Z,100875.61
2019-05-19T06:48:11.931Z,100881.08
2019-05-19T06:50:42.098Z,100877.70
2019-05-19T06:53:14.698Z,100888.27
2019-05-19T06:55:45.173Z,100880.83
2019-05-19T06:58:15.353Z,100882.88
2019-05-19T07:00:45.604Z,100886.95
2019-05-19T07:03:17.006Z,100879.12
2019-05-19T07:05:47.177Z,100882.57
2019-05-19T07:08:17.355Z,100885.50
2019-05-19T07:10:47.482Z,100878.86
2019-05-19T07:13:17.666Z,100879.36
2019-05-19T07:15:48.017Z,100879.30
2019-05-19T07:18:18.269Z,100881.13
2019-05-19T07:20:48.508Z,100880.34
2019-05-19T07:23:27.959Z,100879.77
2019-05-19T07:25:50.665Z,100878.59
2019-05-19T07:28:21.012Z,100874.81
2019-05-19T07:30:51.152Z,100875.39
2019-05-19T07:33:21.276Z,100874.30
2019-05-19T07:35:51.452Z,100880.29
2019-05-19T07:38:21.710Z,100876.63
2019-05-19T07:40:51.829Z,100877.14
2019-05-19T07:43:23.044Z,100878.95
2019-05-19T07:45:53.203Z,100875.76
2019-05-19T07:48:23.448Z,100878.38
2019-05-19T07:50:53.582Z,100885.26
2019-05-19T07:53:23.760Z,100878.81
2019-05-19T07:55:57.400Z,100892.00
2019-05-19T07:58:27.643Z,100884.52
2019-05-19T08:00:57.801Z,100882.06
2019-05-19T08:03:27.959Z,100884.25
2019-05-19T08:05:58.645Z,100893.02
2019-05-19T08:08:29.388Z,100882.79
2019-05-19T08:10:59.481Z,100875.06
2019-05-19T08:13:29.965Z,100879.20
2019-05-19T08:15:59.964Z,100880.17
2019-05-19T08:18:30.176Z,100884.47
2019-05-19T08:21:00.328Z,100884.96
2019-05-19T08:23:30.519Z,100881.58
2019-05-19T08:26:00.682Z,100888.97
2019-05-19T08:28:30.825Z,100886.56
2019-05-19T08:31:00.947Z,100882.68
2019-05-19T08:33:31.125Z,100879.16
2019-05-19T08:36:01.350Z,100871.52
2019-05-19T08:38:31.521Z,100873.07
2019-05-19T08:41:01.758Z,100883.34
2019-05-19T08:43:31.949Z,100877.14
2019-05-19T08:46:02.125Z,100881.55
2019-05-19T08:48:32.309Z,100879.41
2019-05-19T08:51:02.519Z,100884.37
2019-05-19T08:53:32.726Z,100883.86
2019-05-19T08:56:02.991Z,100884.81
2019-05-19T08:58:33.259Z,100891.02
2019-05-19T09:01:03.389Z,100886.42
2019-05-19T09:03:34.635Z,100889.36
2019-05-19T09:06:04.881Z,100885.44
2019-05-19T09:08:35.061Z,100890.28
2019-05-19T09:11:05.338Z,100886.58
2019-05-19T09:13:35.522Z,100888.52
2019-05-19T09:16:06.849Z,100884.19
2019-05-19T09:18:38.670Z,100882.93
2019-05-19T09:21:08.863Z,100886.58
2019-05-19T09:23:39.103Z,100879.07
2019-05-19T09:26:09.340Z,100883.44
2019-05-19T09:28:39.602Z,100872.89
2019-05-19T09:31:09.828Z,100880.06
2019-05-19T09:33:41.680Z,100874.18
2019-05-19T09:36:11.886Z,100869.02
2019-05-19T09:38:42.124Z,100868.35
2019-05-19T09:41:13.338Z,100868.51
2019-05-19T09:43:43.495Z,100868.38
2019-05-19T09:46:14.101Z,100860.42
2019-05-19T09:48:44.417Z,100866.60
2019-05-19T09:51:14.708Z,100865.20
2019-05-19T09:53:44.982Z,100865.00
2019-05-19T09:56:15.230Z,100859.47
2019-05-19T09:58:45.414Z,100859.28
2019-05-19T10:01:15.682Z,100859.69
2019-05-19T10:03:45.950Z,100851.55
2019-05-19T10:06:17.896Z,100858.08
2019-05-19T10:08:53.340Z,100857.47
2019-05-19T10:11:36.453Z,100859.64
2019-05-19T10:14:08.269Z,100856.07
2019-05-19T10:16:38.538Z,100854.87
2019-05-19T10:19:08.828Z,100852.58
2019-05-19T10:21:39.007Z,100854.15
2019-05-19T10:24:09.607Z,100852.30
2019-05-19T10:26:39.816Z,100857.58
2019-05-19T10:29:11.767Z,100850.19
2019-05-19T10:31:41.823Z,100851.63
2019-05-19T10:34:12.219Z,100844.78
2019-05-19T10:36:42.437Z,100850.97
2019-05-19T10:39:12.771Z,100854.33
2019-05-19T10:41:45.514Z,100847.87
2019-05-19T10:44:17.401Z,100846.08
2019-05-19T10:46:47.592Z,100849.97
2019-05-19T10:49:17.871Z,100851.66
2019-05-19T10:51:48.114Z,100845.05
2019-05-19T10:54:19.213Z,100854.25
2019-05-19T10:56:49.464Z,100844.91
2019-05-19T10:59:20.907Z,100840.83
2019-05-19T11:01:51.164Z,100839.03
2019-05-19T11:04:21.403Z,100842.27
2019-05-19T11:06:51.810Z,100841.72
2019-05-19T11:09:22.023Z,100844.88
2019-05-19T11:11:52.180Z,100842.55
2019-05-19T11:14:22.563Z,100845.38
2019-05-19T11:16:52.911Z,100838.81
2019-05-19T11:19:23.151Z,100847.84
2019-05-19T11:21:53.419Z,100842.41
2019-05-19T11:24:23.641Z,100850.59
2019-05-19T11:26:54.453Z,100838.95
2019-05-19T11:29:24.706Z,100844.34
2019-05-19T11:31:56.561Z,100846.38
2019-05-19T11:34:27.966Z,100850.67
2019-05-19T11:37:00.507Z,100845.17
2019-05-19T11:39:30.780Z,100842.55
2019-05-19T11:42:03.095Z,100851.68
2019-05-19T11:44:34.868Z,100839.77
2019-05-19T11:47:05.256Z,100843.86
2019-05-19T11:49:37.132Z,100840.81
2019-05-19T11:52:09.175Z,100843.75
2019-05-19T11:54:39.363Z,100844.22
2019-05-19T11:57:09.929Z,100847.34
2019-05-19T11:59:40.169Z,100846.14
2019-05-19T12:02:13.473Z,100846.20
2019-05-19T12:04:45.743Z,100852.73
2019-05-19T12:07:16.311Z,100852.94
2019-05-19T12:09:47.439Z,100846.92
2019-05-19T12:12:19.499Z,100851.55
2019-05-19T12:14:52.885Z,100852.95
2019-05-19T12:17:23.246Z,100844.83
2019-05-19T12:19:53.495Z,100850.16
2019-05-19T12:22:23.730Z,100862.06
2019-05-19T12:24:54.487Z,100847.17
2019-05-19T12:27:24.863Z,100856.09
2019-05-19T12:29:55.060Z,100847.34
2019-05-19T12:32:27.035Z,100856.23
2019-05-19T12:34:57.277Z,100855.88
2019-05-19T12:37:27.445Z,100857.87
2019-05-19T12:39:57.685Z,100862.33
2019-05-19T12:42:27.993Z,100861.92
2019-05-19T12:44:58.170Z,100856.78
2019-05-19T12:47:28.355Z,100849.70
2019-05-19T12:49:58.563Z,100850.80
2019-05-19T12:52:28.766Z,100846.84
2019-05-19T12:54:59.020Z,100844.02
2019-05-19T12:57:29.193Z,100842.06
2019-05-19T13:00:00.434Z,100843.02
2019-05-19T13:02:38.056Z,100830.55
2019-05-19T13:05:08.780Z,100827.11
2019-05-19T13:07:38.965Z,100825.14
2019-05-19T13:10:09.321Z,100819.94
2019-05-19T13:12:42.721Z,100832.08
2019-05-19T13:15:15.559Z,100828.33
2019-05-19T13:17:47.613Z,100825.12
2019-05-19T13:20:19.276Z,100825.64
2019-05-19T13:22:49.750Z,100836.39
2019-05-19T13:25:21.619Z,100836.63
2019-05-19T13:27:51.806Z,100831.73
2019-05-19T13:30:23.447Z,100834.89
2019-05-19T13:32:53.708Z,100831.15
2019-05-19T13:35:24.020Z,100843.59
2019-05-19T13:37:54.234Z,100846.00
2019-05-19T13:40:24.429Z,100836.90
2019-05-19T13:42:54.690Z,100847.61
2019-05-19T13:45:24.918Z,100841.06
2019-05-19T13:47:55.147Z,100833.09
2019-05-19T13:50:25.362Z,100840.27
2019-05-19T13:52:55.542Z,100836.30
2019-05-19T13:55:25.788Z,100840.06
2019-05-19T13:57:55.920Z,100839.05
2019-05-19T14:00:26.131Z,100840.45
2019-05-19T14:02:56.235Z,100832.12
2019-05-19T14:05:26.532Z,100840.06
2019-05-19T14:07:59.678Z,100842.23
2019-05-19T14:10:32.899Z,100845.80
2019-05-19T14:13:08.726Z,100842.24
2019-05-19T14:15:40.332Z,100839.45
2019-05-19T14:18:13.372Z,100831.55
2019-05-19T14:20:46.603Z,100831.94
2019-05-19T14:23:17.443Z,100825.93
2019-05-19T14:25:50.869Z,100829.80
2019-05-19T14:28:21.101Z,100831.05
2019-05-19T14:30:52.106Z,100831.81
2019-05-19T14:33:22.451Z,100831.47
2019-05-19T14:35:53.835Z,100830.18
2019-05-19T14:38:25.169Z,100828.81
2019-05-19T14:40:57.444Z,100827.52
2019-05-19T14:43:28.115Z,100830.87
2019-05-19T14:45:59.268Z,100839.90
2019-05-19T14:48:29.394Z,100829.44
2019-05-19T14:51:02.288Z,100837.31
2019-05-19T14:53:34.374Z,100836.11
2019-05-19T14:56:04.532Z,100837.09
2019-05-19T14:58:34.651Z,100836.20
2019-05-19T15:01:04.869Z,100838.67
2019-05-19T15:03:35.072Z,100843.31
2019-05-19T15:06:05.224Z,100838.96
2019-05-19T15:08:35.501Z,100836.67
2019-05-19T15:11:05.765Z,100829.03
2019-05-19T15:13:36.148Z,100834.59
2019-05-19T15:16:06.380Z,100836.11
2019-05-19T15:18:36.587Z,100836.91
2019-05-19T15:21:06.785Z,100838.92
2019-05-19T15:23:37.191Z,100836.00
2019-05-19T15:26:08.919Z,100836.13
2019-05-19T15:28:39.121Z,100833.45
2019-05-19T15:31:09.244Z,100831.27
2019-05-19T15:33:39.448Z,100833.05
2019-05-19T15:36:10.751Z,100834.45
2019-05-19T15:38:45.144Z,100830.41
2019-05-19T15:41:15.420Z,100833.84
2019-05-19T15:43:45.674Z,100836.40
2019-05-19T15:46:18.128Z,100829.45
2019-05-19T15:48:47.927Z,100825.85
2019-05-19T15:51:28.016Z,100820.63
2019-05-19T15:53:49.981Z,100819.97
2019-05-19T15:56:20.149Z,100822.00
2019-05-19T15:58:50.386Z,100815.59
2019-05-19T16:01:20.958Z,100817.64
2019-05-19T16:03:51.074Z,100811.86
2019-05-19T16:06:21.201Z,100819.23
2019-05-19T16:08:51.366Z,100821.66
2019-05-19T16:11:21.480Z,100824.11
2019-05-19T16:13:51.768Z,100817.09
2019-05-19T16:16:21.959Z,100810.40
2019-05-19T16:18:53.353Z,100812.22
2019-05-19T16:21:23.640Z,100808.73
2019-05-19T16:23:54.024Z,100812.55
2019-05-19T16:26:24.730Z,100808.87
2019-05-19T16:28:54.902Z,100809.54
2019-05-19T16:31:25.234Z,100796.58
2019-05-19T16:33:55.827Z,100798.52
2019-05-19T16:36:26.125Z,100802.81
2019-05-19T16:38:56.528Z,100796.45
2019-05-19T16:41:27.800Z,100792.06
2019-05-19T16:43:58.023Z,100784.08
2019-05-19T16:46:28.176Z,100786.46
2019-05-19T16:49:00.893Z,100781.86
2019-05-19T16:51:31.267Z,100777.52
2019-05-19T16:54:05.726Z,100776.68
2019-05-19T16:56:38.449Z,100772.50
2019-05-19T16:59:09.980Z,100772.90
2019-05-19T17:01:40.245Z,100781.31
2019-05-19T17:04:11.941Z,100797.69
2019-05-19T17:06:42.255Z,100797.27
2019-05-19T17:09:12.459Z,100803.17
2019-05-19T17:11:42.674Z,100806.08
2019-05-19T17:14:12.904Z,100801.44
2019-05-19T17:16:43.018Z,100794.61
2019-05-19T17:19:14.817Z,100820.63
2019-05-19T17:21:45.039Z,100824.96
2019-05-19T17:24:15.409Z,100828.31
2019-05-19T17:26:45.515Z,100834.13
2019-05-19T17:29:15.681Z,100829.73
2019-05-19T17:31:45.891Z,100832.52
2019-05-19T17:34:16.146Z,100840.31
2019-05-19T17:36:46.286Z,100841.70
2019-05-19T17:39:21.234Z,100844.55
2019-05-19T17:41:57.495Z,100848.59
2019-05-19T17:44:27.780Z,100845.27
2019-05-19T17:46:58.100Z,100849.88
2019-05-19T17:49:28.331Z,100852.72
2019-05-19T17:51:59.097Z,100848.58
2019-05-19T17:54:29.254Z,100853.94
2019-05-19T17:57:00.327Z,100854.75
2019-05-19T17:59:30.744Z,100838.65
2019-05-19T18:02:00.889Z,100846.92
2019-05-19T18:04:31.027Z,100849.48
2019-05-19T18:07:01.247Z,100860.21
2019-05-19T18:09:35.362Z,100862.56
2019-05-19T18:12:05.568Z,100867.50
2019-05-19T18:14:35.800Z,100876.08
2019-05-19T18:17:06.006Z,100875.37
2019-05-19T18:19:36.278Z,100879.75
2019-05-19T18:22:06.589Z,100877.68
2019-05-19T18:24:37.222Z,100873.98
2019-05-19T18:27:07.418Z,100877.16
2019-05-19T18:29:37.677Z,100877.80
2019-05-19T18:32:07.835Z,100877.80
2019-05-19T18:34:38.191Z,100879.00
2019-05-19T18:37:08.379Z,100876.63
2019-05-19T18:39:38.655Z,100892.06
2019-05-19T18:42:08.860Z,100900.27
2019-05-19T18:44:40.232Z,100899.17
2019-05-19T18:47:11.915Z,100886.48
2019-05-19T18:49:42.173Z,100888.13
2019-05-19T18:52:12.311Z,100890.00
2019-05-19T18:54:42.505Z,100897.73
2019-05-19T18:57:14.313Z,100888.07
2019-05-19T18:59:47.561Z,100904.63
2019-05-19T19:02:16.705Z,100905.36
2019-05-19T19:04:46.998Z,100910.81
2019-05-19T19:07:17.233Z,100906.64
2019-05-19T19:09:49.011Z,100907.28
2019-05-19T19:12:19.277Z,100915.69
2019-05-19T19:14:49.505Z,100921.92
2019-05-19T19:17:19.699Z,100926.80
2019-05-19T19:19:49.902Z,100922.55
2019-05-19T19:22:21.647Z,100921.71
2019-05-19T19:24:51.890Z,100927.11
2019-05-19T19:27:22.150Z,100932.11
2019-05-19T19:30:03.020Z,100931.99
2019-05-19T19:32:26.169Z,100930.52
2019-05-19T19:34:56.391Z,100929.83
2019-05-19T19:37:27.755Z,100933.28
2019-05-19T19:40:06.294Z,100936.14
2019-05-19T19:42:39.217Z,100938.80
2019-05-19T19:45:11.213Z,100933.38
2019-05-19T19:47:41.538Z,100941.27
2019-05-19T19:50:15.498Z,100937.78
2019-05-19T19:52:46.041Z,100938.30
2019-05-19T19:55:18.707Z,100935.34
2019-05-19T19:57:53.319Z,100942.46
2019-05-19T20:00:44.843Z,100947.20
2019-05-19T20:03:23.438Z,100946.72
2019-05-19T20:05:56.532Z,100938.94
2019-05-19T20:08:27.013Z,100934.09
2019-05-19T20:10:57.296Z,100939.58
2019-05-19T20:13:27.676Z,100928.77
2019-05-19T20:15:59.938Z,100921.71
2019-05-19T20:18:30.237Z,100918.16
2019-05-19T20:21:01.501Z,100925.50
2019-05-19T20:23:31.803Z,100922.55
2019-05-19T20:26:01.981Z,100930.05
2019-05-19T20:28:33.289Z,100928.87
2019-05-19T20:31:03.459Z,100925.63
2019-05-19T20:33:33.669Z,100930.66
2019-05-19T20:36:03.910Z,100922.62
2019-05-19T20:38:34.133Z,100917.94
2019-05-19T20:41:04.345Z,100912.77
2019-05-19T20:43:34.701Z,100914.89
2019-05-19T20:46:05.010Z,100911.39
2019-05-19T20:48:35.115Z,100906.52
2019-05-19T20:51:06.661Z,100912.64
2019-05-19T20:53:36.854Z,100905.98
2019-05-19T20:56:08.717Z,100901.20
2019-05-19T20:58:38.947Z,100909.63
2019-05-19T21:01:09.072Z,100909.92
2019-05-19T21:03:43.443Z,100909.05
2019-05-19T21:06:13.669Z,100911.84
2019-05-19T21:08:43.812Z,100907.13
2019-05-19T21:11:15.118Z,100906.61
2019-05-19T21:13:45.301Z,100912.25
2019-05-19T21:16:16.602Z,100907.61
2019-05-19T21:19:04.910Z,100905.44
2019-05-19T21:21:35.173Z,100907.54
2019-05-19T21:24:05.397Z,100908.52
2019-05-19T21:26:35.570Z,100903.00
2019-05-19T21:29:05.831Z,100905.10
2019-05-19T21:31:40.027Z,100899.80
2019-05-19T21:34:10.333Z,100896.64
2019-05-19T21:36:40.577Z,100900.77
2019-05-19T21:39:12.577Z,100892.50
2019-05-19T21:41:42.758Z,100883.26
2019-05-19T21:44:12.918Z,100890.84
2019-05-19T21:46:43.104Z,100884.47
2019-05-19T21:49:13.272Z,100888.55
2019-05-19T21:51:43.481Z,100885.21
2019-05-19T21:54:13.681Z,100884.58
2019-05-19T21:56:43.893Z,100885.60
2019-05-19T21:59:14.092Z,100888.83
2019-05-19T22:01:45.874Z,100886.86
2019-05-19T22:04:16.028Z,100874.29
2019-05-19T22:06:51.110Z,100876.41
2019-05-19T22:09:21.422Z,100872.39
2019-05-19T22:11:51.644Z,100878.95
2019-05-19T22:14:21.881Z,100878.20
2019-05-19T22:16:52.080Z,100873.77
2019-05-19T22:19:22.382Z,100875.73
2019-05-19T22:21:52.561Z,100886.29
2019-05-19T22:24:22.730Z,100882.26
2019-05-19T22:26:53.069Z,100878.02
2019-05-19T22:29:23.220Z,100876.30
2019-05-19T22:31:53.386Z,100876.08
2019-05-19T22:34:23.689Z,100873.66
2019-05-19T22:36:54.792Z,100865.62
2019-05-19T22:39:24.991Z,100870.51
2019-05-19T22:41:55.537Z,100869.45
2019-05-19T22:44:25.744Z,100872.69
2019-05-19T22:46:55.971Z,100862.16
2019-05-19T22:49:26.135Z,100876.41
2019-05-19T22:51:56.407Z,100869.23
2019-05-19T22:54:28.419Z,100878.65
2019-05-19T22:56:58.623Z,100873.98
2019-05-19T22:59:28.788Z,100872.80
2019-05-19T23:01:59.944Z,100867.39
2019-05-19T23:04:30.111Z,100860.27
2019-05-19T23:07:00.258Z,100864.80
2019-05-19T23:09:30.403Z,100861.77
2019-05-19T23:12:00.558Z,100862.95
2019-05-19T23:14:30.733Z,100855.39
2019-05-19T23:17:00.941Z,100862.29
2019-05-19T23:19:31.098Z,100852.22
2019-05-19T23:22:01.283Z,100859.50
2019-05-19T23:24:31.429Z,100863.14
2019-05-19T23:27:01.704Z,100863.59
2019-05-19T23:29:31.872Z,100850.48
2019-05-19T23:32:07.232Z,100853.24
2019-05-19T23:34:34.045Z,100850.73
2019-05-19T23:37:04.225Z,100850.43
2019-05-19T23:39:35.411Z,100846.70
2019-05-19T23:42:05.631Z,100839.64
2019-05-19T23:44:35.775Z,100851.59
2019-05-19T23:47:05.936Z,100845.38
2019-05-19T23:49:36.096Z,100848.72
2019-05-19T23:52:06.261Z,100845.49
2019-05-19T23:54:36.456Z,100841.08
2019-05-19T23:57:06.691Z,100843.09
2019-05-19T23:59:36.895Z,100843.42
